Time;durP1;ratioP1;P1;durP2;ratioP2;P2;SDS_P1;SDS_P2;PMS_P1;PMS_P2;Temp;Humidity;BMP_temperature;BMP_pressure;BME280_temperature;BME280_humidity;BME280_pressure;Samples;Min_cycle;Max_cycle;Signal;HPM_P1;HPM_P2
2021/08/02 00:05:32;;;;;;;;;;;;;;;;;;;;;
2021/08/02 00:11:57;;;;;;;41.15;27.90;;;;;;;14.92;88.98;97967.74;261971;1089;22788;-76
2021/08/02 00:17:33;;;;;;;49.90;32.50;;;;;;;14.93;89.07;97968.52;261951;1090;22828;-77
2021/08/02 00:23:31;;;;;;;52.05;33.00;;;;;;;14.93;89.13;97949.64;261897;1090;22855;-75
2021/08/02 00:29:30;;;;;;;57.83;34.87;;;;;;;14.92;89.04;97956.19;261983;1090;22850;-75
2021/08/02 00:34:37;;;;;;;55.73;34.57;;;;;;;14.86;88.80;97948.30;261958;1090;23019;-76
2021/08/02 00:40:26;;;;;;;55.43;34.03;;;;;;;14.84;88.80;97972.14;262003;1090;22964;-75
2021/08/02 00:45:38;;;;;;;47.35;31.90;;;;;;;14.76;88.75;97977.61;261977;1090;25993;-75
2021/08/02 00:51:22;;;;;;;56.35;33.95;;;;;;;14.78;89.34;97976.16;262010;1088;22787;-76
2021/08/02 00:56:53;;;;;;;;;;;;;;;;;;;;;
2021/08/02 01:02:01;;;;;;;32.20;23.53;;;;;;;14.71;89.04;97976.70;262077;1089;27102;-76
2021/08/02 01:07:34;;;;;;;30.13;21.37;;;;;;;14.70;88.91;97982.44;261916;1090;22889;-76
2021/08/02 01:13:05;;;;;;;30.75;21.70;;;;;;;14.63;88.65;97987.59;261916;1090;22818;-76
2021/08/02 01:18:40;;;;;;;27.63;18.67;;;;;;;14.52;88.64;97989.89;261890;1089;22781;-76
2021/08/02 01:23:51;;;;;;;26.20;18.60;;;;;;;14.45;88.86;97990.45;262012;1090;22939;-77
2021/08/02 01:29:56;;;;;;;;;;;;;;;;;;;;;
2021/08/02 01:36:12;;;;;;;22.30;16.10;;;;;;;14.37;88.94;97996.72;261997;1090;22787;-76
2021/08/02 01:42:05;;;;;;;18.25;13.45;;;;;;;14.35;89.12;98001.64;262008;1088;22949;-76
2021/08/02 01:47:37;;;;;;;24.35;15.08;;;;;;;14.35;89.02;97999.75;262050;1090;22779;-77
2021/08/02 01:53:33;;;;;;;16.17;12.33;;;;;;;14.36;89.12;97987.05;262149;1090;22873;-75
2021/08/02 01:59:15;;;;;;;20.68;12.65;;;;;;;14.32;88.77;97984.22;262124;1090;22909;-76
2021/08/02 02:05:14;;;;;;;17.73;12.20;;;;;;;14.28;88.69;97985.23;262003;1090;23070;-76
2021/08/02 02:11:35;;;;;;;21.53;13.10;;;;;;;14.25;88.86;97994.75;262089;1090;27173;-76
2021/08/02 02:17:15;;;;;;;20.55;13.38;;;;;;;14.30;88.91;97999.17;262213;1090;22873;-75
2021/08/02 02:23:13;;;;;;;18.35;11.45;;;;;;;14.29;88.70;97997.58;262064;1090;22790;-76
2021/08/02 02:29:06;;;;;;;18.70;11.15;;;;;;;14.20;88.33;98003.84;262220;1090;22849;-75
2021/08/02 02:42:07;;;;;;;14.05;10.35;;;;;;;14.14;88.48;98015.91;262203;1089;25198;-76
2021/08/02 02:48:08;;;;;;;12.80;9.95;;;;;;;14.08;88.35;98017.25;262122;1090;26066;-75
2021/08/02 02:54:17;;;;;;;12.80;8.90;;;;;;;14.02;88.54;98019.36;262239;1092;22942;-75
2021/08/02 02:59:51;;;;;;;11.00;8.80;;;;;;;14.01;88.58;98022.38;262211;1090;22905;-76
2021/08/02 03:11:33;;;;;;;12.20;8.80;;;;;;;13.97;88.42;98046.47;262212;1090;22885;-77
2021/08/02 03:16:46;;;;;;;14.20;9.77;;;;;;;13.97;88.50;98054.55;262266;1090;22828;-76
2021/08/02 03:22:45;;;;;;;13.83;9.27;;;;;;;13.98;88.47;98058.05;262131;1093;22975;-75
2021/08/02 03:29:34;;;;;;;;;;;;;;;;;;;;;
2021/08/02 03:35:06;;;;;;;;;;;;;;;;;;;;;
2021/08/02 03:40:55;;;;;;;16.15;8.15;;;;;;;13.94;88.60;98081.36;261984;1090;22870;-76
2021/08/02 03:46:29;;;;;;;9.60;7.85;;;;;;;13.96;88.50;98074.53;262060;1089;25951;-75
2021/08/02 03:52:34;;;;;;;9.95;8.15;;;;;;;14.03;88.39;98076.68;261567;1093;22859;-75
2021/08/02 03:58:55;;;;;;;;;;;;;;;;;;;;;
2021/08/02 04:04:38;;;;;;;11.30;8.15;;;;;;;14.25;88.09;98089.03;261736;1093;22776;-75
2021/08/02 04:37:00;;;;;;;;;;;;;;;;;;;;;
2021/08/02 04:50:49;;;;;;;;;;;;;;;;;;;;;
2021/08/02 04:57:41;;;;;;;15.07;10.27;;;;;;;14.98;87.95;98135.52;261767;1090;23001;-76
2021/08/02 05:03:51;;;;;;;14.25;9.30;;;;;;;15.03;88.37;98146.88;261911;1090;22894;-74
2021/08/02 05:09:50;;;;;;;14.65;9.35;;;;;;;15.10;88.23;98148.26;261789;1088;22772;-76
2021/08/02 05:15:39;;;;;;;;;;;;;;;;;;;;;
2021/08/02 05:22:09;;;;;;;15.00;10.25;;;;;;;15.39;88.04;98168.89;261844;1090;22834;-76
2021/08/02 05:35:33;;;;;;;14.15;8.30;;;;;;;15.61;87.26;98175.77;261742;1090;27561;-75
2021/08/02 05:55:47;;;;;;;;;;;;;;;;;;;;;
2021/08/02 06:02:24;;;;;;;15.15;9.20;;;;;;;16.07;85.83;98200.00;262906;1089;22834;-74
2021/08/02 06:07:49;;;;;;;14.70;8.77;;;;;;;16.19;85.51;98199.22;262859;1089;23388;-75
2021/08/02 06:13:16;;;;;;;11.75;7.85;;;;;;;16.26;85.39;98199.43;263347;1089;23483;-75
2021/08/02 06:18:29;;;;;;;11.25;7.75;;;;;;;16.47;85.45;98204.69;263142;1089;23504;-74
2021/08/02 06:24:01;;;;;;;;;;;;;;;;;;;;;
2021/08/02 06:42:47;;;;;;;14.30;8.40;;;;;;;17.17;83.48;98211.69;262040;1090;22959;-73
2021/08/02 06:49:30;;;;;;;;;;;;;;;;;;;;;
2021/08/02 06:55:49;;;;;;;;;;;;;;;;;;;;;
2021/08/02 07:09:34;;;;;;;;;;;;;;;;;;;;;
2021/08/02 07:15:21;;;;;;;13.13;9.97;;;;;;;17.95;81.21;98235.74;262022;1093;22825;-74
2021/08/02 07:21:15;;;;;;;17.60;12.05;;;;;;;18.07;81.19;98238.33;262137;1089;22864;-73
2021/08/02 07:33:03;;;;;;;20.10;11.90;;;;;;;18.29;79.79;98245.05;262093;1090;22874;-73
2021/08/02 07:45:27;;;;;;;17.50;11.85;;;;;;;18.69;79.15;98251.35;262528;1090;22937;-73
2021/08/02 07:51:49;;;;;;;22.35;14.90;;;;;;;19.03;77.27;98261.73;262643;1090;22893;-73
2021/08/02 07:57:44;;;;;;;;;;;;;;;;;;;;;
2021/08/02 08:03:19;;;;;;;33.00;20.75;;;;;;;19.85;78.20;98273.38;262642;1090;22780;-71
2021/08/02 08:08:49;;;;;;;39.03;23.35;;;;;;;20.08;77.07;98275.32;262895;1090;25951;-72
2021/08/02 08:14:06;;;;;;;41.43;22.35;;;;;;;20.25;76.97;98277.52;263350;1089;22789;-72
2021/08/02 08:19:45;;;;;;;36.90;20.93;;;;;;;20.04;74.46;98280.69;262697;1089;22780;-73
2021/08/02 08:25:18;;;;;;;28.18;17.38;;;;;;;20.09;75.09;98285.83;262663;1089;22779;-73
2021/08/02 08:36:18;;;;;;;27.40;18.35;;;;;;;20.81;74.64;98289.63;262548;1089;22824;-73
2021/08/02 08:42:27;;;;;;;29.40;17.17;;;;;;;21.29;73.10;98288.27;262918;1089;22787;-73
2021/08/02 08:48:39;;;;;;;24.15;17.18;;;;;;;21.48;72.28;98298.21;262740;1090;22817;-73
2021/08/02 09:02:19;;;;;;;;;;;;;;;;;;;;;
2021/08/02 09:15:22;;;;;;;24.80;14.98;;;;;;;21.34;69.93;98313.23;262708;1089;22805;-72
2021/08/02 09:21:27;;;;;;;;;;;;;;;;;;;;;
2021/08/02 09:27:34;;;;;;;;;;;;;;;21.98;67.59;98296.00;262879;1090;22834;-71
2021/08/02 09:33:52;;;;;;;14.10;11.65;;;;;;;22.30;67.70;98300.94;263561;1089;21456;-72
2021/08/02 09:46:36;;;;;;;;;;;;;;;;;;;;;
2021/08/02 09:52:56;;;;;;;14.83;10.73;;;;;;;22.68;65.09;98309.03;262590;1088;22791;-73
2021/08/02 09:59:19;;;;;;;;;;;;;;;;;;;;;
2021/08/02 10:06:03;;;;;;;;;;;;;;;;;;;;;
2021/08/02 10:31:58;;;;;;;15.10;11.45;;;;;;;21.80;64.77;98316.88;262555;1090;23868;-72
2021/08/02 10:44:32;;;;;;;6.95;6.18;;;;;;;21.59;62.58;98314.69;262431;1090;23451;-72
2021/08/02 10:50:42;;;;;;;5.53;5.03;;;;;;;22.00;61.07;98307.30;264231;1089;26395;-71
2021/08/02 10:56:50;;;;;;;8.60;7.70;;;;;;;21.75;62.41;98317.98;262550;1090;22863;-72
2021/08/02 11:10:32;;;;;;;6.83;5.30;;;;;;;20.89;63.90;98306.84;262812;1090;22943;-71
2021/08/02 11:24:12;;;;;;;13.05;11.68;;;;;;;21.09;67.52;98307.48;262419;1090;27129;-71
2021/08/02 11:30:59;;;;;;;10.50;9.50;;;;;;;21.39;66.17;98309.38;262430;1090;22817;-71
2021/08/02 11:45:01;;;;;;;;;;;;;;;;;;;;;
2021/08/02 11:51:48;;;;;;;12.13;11.00;;;;;;;22.14;64.86;98314.06;262037;1090;22767;-72
2021/08/02 11:57:57;;;;;;;;;;;;;;;;;;;;;
2021/08/02 12:05:03;;;;;;;;;;;;;;;;;;;;;
2021/08/02 12:11:23;;;;;;;8.20;7.50;;;;;;;22.37;66.07;98311.94;261817;1090;26293;-72
2021/08/02 12:17:26;;;;;;;7.25;6.55;;;;;;;23.05;65.81;98317.00;261989;1089;22787;-72
2021/08/02 12:24:04;;;;;;;7.95;7.28;;;;;;;23.21;63.82;98307.73;262123;1090;22802;-72
2021/08/02 12:31:05;;;;;;;7.05;6.35;;;;;;;22.43;63.77;98333.39;261997;1090;23395;-72
2021/08/02 12:44:39;;;;;;;9.70;8.83;;;;;;;20.80;67.69;98344.43;261792;1090;22891;-71
2021/08/02 12:50:44;;;;;;;9.10;8.30;;;;;;;20.43;69.65;98331.42;261895;1090;25836;-71
2021/08/02 12:56:47;;;;;;;9.87;7.97;;;;;;;19.91;71.38;98322.78;261866;1090;22942;-71
2021/08/02 13:03:21;;;;;;;;;;;;;;;;;;;;;
2021/08/02 13:09:49;;;;;;;12.93;11.20;;;;;;;19.56;74.06;98302.73;261738;1090;22951;-71
2021/08/02 13:29:34;;;;;;;8.53;7.83;;;;;;;20.61;75.23;98294.38;262003;1090;22869;-71
2021/08/02 13:36:30;;;;;;;10.30;9.30;;;;;;;21.45;75.46;98288.84;261615;1092;22777;-72
2021/08/02 14:39:08;;;;;;;4.40;2.80;;;;;;;16.22;72.32;98429.02;261981;1090;23007;-79
2021/08/02 14:46:25;;;;;;;5.60;2.70;;;;;;;15.31;74.81;98450.41;261925;1088;22774;-79
2021/08/02 14:53:11;;;;;;;5.10;3.67;;;;;;;15.00;76.56;98452.33;262044;1092;22812;-79
2021/08/02 15:00:00;;;;;;;8.27;4.17;;;;;;;14.94;78.57;98460.92;261557;1090;22805;-78
2021/08/02 15:06:18;;;;;;;5.18;4.40;;;;;;;14.82;79.82;98475.88;262121;1090;26366;-78
2021/08/02 15:12:41;;;;;;;5.20;4.40;;;;;;;14.73;80.64;98482.42;261497;1093;23241;-78
2021/08/02 15:26:27;;;;;;;;;;;;;;;;;;;;;
2021/08/02 15:39:58;;;;;;;5.30;4.80;;;;;;;14.95;82.91;98435.54;262616;1090;22985;-79
2021/08/02 15:47:04;;;;;;;4.60;4.17;;;;;;;15.47;83.32;98435.20;262670;1090;22867;-79
2021/08/02 16:00:32;;;;;;;3.80;2.75;;;;;;;16.38;81.44;98428.37;262751;1090;22860;-79
2021/08/02 16:07:52;;;;;;;;;;;;;;;;;;;;;
2021/08/02 16:14:27;;;;;;;2.50;2.30;;;;;;;17.03;79.43;98452.13;262162;1090;22780;-77
2021/08/02 16:21:02;;;;;;;;;;;;;;;;;;;;;
2021/08/02 16:27:52;;;;;;;5.50;3.30;;;;;;;17.35;80.39;98441.47;261940;1090;22800;-78
2021/08/02 16:47:46;;;;;;;;;;;;;;;;;;;;;
2021/08/02 16:54:08;;;;;;;3.87;3.03;;;;;;;17.91;79.23;98452.41;262034;1090;25993;-78
2021/08/02 17:01:14;;;;;;;4.20;3.15;;;;;;;17.60;78.76;98448.42;261897;1090;22803;-77
2021/08/02 17:14:00;;;;;;;4.60;4.20;;;;;;;17.11;79.93;98456.64;262314;1090;22780;-76
2021/08/02 17:19:33;;;;;;;4.80;3.97;;;;;;;17.09;80.49;98456.95;262412;1089;22822;-77
2021/08/02 17:25:38;;;;;;;4.47;4.07;;;;;;;16.96;80.70;98457.29;262183;1090;22842;-77
2021/08/02 17:31:04;;;;;;;5.95;4.20;;;;;;;16.79;80.93;98461.78;262595;1090;25790;-77
2021/08/02 17:37:03;;;;;;;3.95;3.65;;;;;;;16.65;81.11;98469.41;262103;1090;22790;-77
2021/08/02 17:43:06;;;;;;;8.68;7.78;;;;;;;16.46;81.27;98468.03;262085;1090;22805;-78
2021/08/02 17:48:38;;;;;;;5.65;4.30;;;;;;;16.31;81.18;98464.05;262166;1092;22943;-76
2021/08/02 17:54:08;;;;;;;4.40;4.00;;;;;;;16.16;81.51;98465.48;262032;1093;24490;-76
2021/08/02 17:59:58;;;;;;;;;;;;;;;;;;;;;
2021/08/02 18:05:33;;;;;;;6.20;5.65;;;;;;;15.88;82.47;98463.34;262183;1093;26085;-77
2021/08/02 18:11:20;;;;;;;;;;;;;;;;;;;;;
2021/08/02 18:17:41;;;;;;;6.90;5.75;;;;;;;15.67;82.56;98466.03;262120;1090;25989;-76
2021/08/02 18:23:24;;;;;;;6.80;6.10;;;;;;;15.60;83.13;98475.77;262030;1088;22863;-77
2021/08/02 18:29:34;;;;;;;;;;;;;;;;;;;;;
2021/08/02 18:35:42;;;;;;;;;;;;;;;;;;;;;
2021/08/02 18:42:02;;;;;;;12.97;10.13;;;;;;;15.12;84.16;98489.38;262003;1090;23007;-75
2021/08/02 18:47:48;;;;;;;10.27;8.60;;;;;;;15.04;84.87;98501.81;262127;1090;22816;-77
2021/08/02 18:53:26;;;;;;;;;;;;;;;;;;;;;
2021/08/02 18:59:26;;;;;;;15.60;11.70;;;;;;;14.98;85.46;98510.40;261839;1093;22900;-75
2021/08/02 19:04:52;;;;;;;12.20;10.90;;;;;;;14.93;85.67;98516.77;262015;1090;22873;-77
2021/08/02 19:10:34;;;;;;;17.25;13.10;;;;;;;14.89;85.88;98518.53;261966;1090;23411;-77
2021/08/02 19:17:07;;;;;;;15.73;12.07;;;;;;;14.88;86.22;98525.81;262103;1089;22824;-76
2021/08/02 19:23:56;;;;;;;15.50;11.60;;;;;;;14.86;86.83;98517.27;261984;1090;22793;-76
2021/08/02 19:31:08;;;;;;;14.43;11.57;;;;;;;14.77;86.65;98516.50;261805;1090;22956;-76
2021/08/02 19:44:02;;;;;;;;;;;;;;;;;;;;;
2021/08/02 19:50:46;;;;;;;18.05;13.95;;;;;;;14.60;87.42;98532.70;261875;1090;22846;-77
2021/08/02 19:57:15;;;;;;;17.70;13.40;;;;;;;14.55;87.27;98530.98;261574;1090;22809;-76
2021/08/02 20:02:56;;;;;;;;;;;;;;;;;;;;;
2021/08/02 20:09:25;;;;;;;15.77;12.77;;;;;;;14.40;87.56;98540.34;261889;1090;22754;-76
2021/08/02 20:15:44;;;;;;;;;;;;;;;;;;;;;
2021/08/02 20:22:00;;;;;;;16.05;11.95;;;;;;;14.26;87.66;98548.59;261743;1090;25848;-78
2021/08/02 20:29:03;;;;;;;16.30;11.60;;;;;;;14.20;87.80;98553.36;261915;1090;22806;-77
2021/08/02 20:35:37;;;;;;;15.83;12.67;;;;;;;14.14;87.86;98556.52;261858;1089;25957;-79
2021/08/02 20:42:09;;;;;;;18.80;12.33;;;;;;;14.08;87.90;98555.89;261495;1090;22937;-77
2021/08/02 20:47:36;;;;;;;16.30;11.20;;;;;;;14.03;88.00;98564.92;261896;1089;25119;-76
2021/08/02 20:53:42;;;;;;;17.20;12.75;;;;;;;14.02;88.04;98562.55;261862;1093;22900;-77
2021/08/02 21:00:26;;;;;;;16.30;12.10;;;;;;;14.01;88.11;98555.58;261828;1093;22789;-76
2021/08/02 21:06:42;;;;;;;;;;;;;;;;;;;;;
2021/08/02 21:12:51;;;;;;;14.77;11.23;;;;;;;14.04;88.19;98554.94;261845;1093;22964;-76
2021/08/02 21:19:25;;;;;;;13.73;11.60;;;;;;;14.04;88.19;98554.94;261770;1093;22714;-76
2021/08/02 21:31:28;;;;;;;16.30;11.30;;;;;;;13.96;88.05;98561.11;261969;1090;23272;-76
2021/08/02 21:38:35;;;;;;;15.35;11.45;;;;;;;13.88;87.96;98567.27;261765;1093;29245;-77
2021/08/02 21:44:40;;;;;;;15.07;11.27;;;;;;;13.78;88.13;98566.48;261869;1092;22795;-77
2021/08/02 21:50:55;;;;;;;;;;;;;;;;;;;;;
2021/08/02 22:03:58;;;;;;;11.70;9.70;;;;;;;13.63;88.27;98569.63;261673;1093;23758;-77
2021/08/02 22:10:45;;;;;;;14.50;10.50;;;;;;;13.58;88.48;98585.91;261423;1089;26735;-77
2021/08/02 22:17:28;;;;;;;;;;;;;;;;;;;;;
2021/08/02 22:24:23;;;;;;;16.95;12.35;;;;;;;13.45;88.93;98574.95;261735;1090;22876;-76
2021/08/02 22:30:17;;;;;;;16.25;12.05;;;;;;;13.40;88.63;98564.31;261800;1090;22776;-75
2021/08/02 22:36:30;;;;;;;;;;;;;;;;;;;;;
2021/08/02 22:43:00;;;;;;;14.00;11.70;;;;;;;13.34;88.77;98577.09;261673;1090;22783;-77
2021/08/02 22:49:29;;;;;;;;;;;;;;;;;;;;;
2021/08/02 22:56:09;;;;;;;19.93;14.47;;;;;;;13.32;89.05;98578.53;261785;1089;22888;-76
2021/08/02 23:03:10;;;;;;;21.13;15.37;;;;;;;13.31;89.24;98575.02;261789;1090;23551;-78
2021/08/02 23:09:44;;;;;;;20.70;15.60;;;;;;;13.30;89.14;98580.72;261732;1090;22879;-77
2021/08/02 23:16:17;;;;;;;22.00;15.20;;;;;;;13.28;89.03;98577.56;261849;1089;26289;-77
2021/08/02 23:23:21;;;;;;;20.85;14.95;;;;;;;13.23;89.04;98586.54;261683;1090;22869;-77
2021/08/02 23:35:58;;;;;;;21.08;15.63;;;;;;;13.16;89.18;98581.63;261867;1092;22885;-76
2021/08/02 23:42:09;;;;;;;22.87;15.67;;;;;;;13.11;89.28;98583.63;261916;1090;22806;-77
2021/08/02 23:48:20;;;;;;;;;;;;;;;;;;;;;
2021/08/02 23:54:48;;;;;;;20.40;14.30;;;;;;;13.01;89.33;98561.31;261822;1091;24337;-77
